createdAt,value
2019-05-07T00:00:53.199Z,995.16
2019-05-07T00:01:55.114Z,995.18
2019-05-07T00:02:53.373Z,995.17
2019-05-07T00:03:53.470Z,995.16
2019-05-07T00:04:53.558Z,995.14
2019-05-07T00:05:53.923Z,995.14
2019-05-07T00:06:53.737Z,995.11
2019-05-07T00:07:53.828Z,995.11
2019-05-07T00:08:53.920Z,995.07
2019-05-07T00:09:54.011Z,995.11
2019-05-07T00:10:54.094Z,995.07
2019-05-07T00:11:54.182Z,995.08
2019-05-07T00:12:54.276Z,995.07
2019-05-07T00:13:54.362Z,995.06
2019-05-07T00:15:00.905Z,995.06
2019-05-07T00:15:54.541Z,995.07
2019-05-07T00:16:54.631Z,995.09
2019-05-07T00:17:54.728Z,995.03
2019-05-07T00:18:54.805Z,995.03
2019-05-07T00:19:54.887Z,994.98
2019-05-07T00:20:54.978Z,995.04
2019-05-07T00:21:55.072Z,995.05
2019-05-07T00:22:55.165Z,995.01
2019-05-07T00:23:55.253Z,995.03
2019-05-07T00:24:55.341Z,995.00
2019-05-07T00:25:55.432Z,995.01
2019-05-07T00:26:55.522Z,994.98
2019-05-07T00:27:55.617Z,994.94
2019-05-07T00:28:55.703Z,994.96
2019-05-07T00:29:55.796Z,994.99
2019-05-07T00:30:55.889Z,994.96
2019-05-07T00:31:55.975Z,994.99
2019-05-07T00:32:56.063Z,994.95
2019-05-07T00:33:56.153Z,994.97
2019-05-07T00:34:56.245Z,994.99
2019-05-07T00:35:56.333Z,994.99
2019-05-07T00:36:56.422Z,994.96
2019-05-07T00:37:56.508Z,995.02
2019-05-07T00:38:56.615Z,994.97
2019-05-07T00:39:56.699Z,994.98
2019-05-07T00:40:56.789Z,994.93
2019-05-07T00:41:56.879Z,994.90
2019-05-07T00:42:56.974Z,994.92
2019-05-07T00:43:57.059Z,994.93
2019-05-07T00:44:57.152Z,994.94
2019-05-07T00:45:57.322Z,994.89
2019-05-07T00:46:57.333Z,994.94
2019-05-07T00:47:57.417Z,994.92
2019-05-07T00:48:57.504Z,994.92
2019-05-07T00:49:57.598Z,994.92
2019-05-07T00:50:57.686Z,994.91
2019-05-07T00:51:57.782Z,994.86
2019-05-07T00:52:57.866Z,994.88
2019-05-07T00:53:57.951Z,994.85
2019-05-07T00:54:58.041Z,994.85
2019-05-07T00:55:58.133Z,994.87
2019-05-07T00:56:58.220Z,994.88
2019-05-07T00:57:58.308Z,994.86
2019-05-07T00:58:58.406Z,994.85
2019-05-07T00:59:58.490Z,994.85
2019-05-07T01:00:58.581Z,994.87
2019-05-07T01:01:58.672Z,994.87
2019-05-07T01:02:58.760Z,994.87
2019-05-07T01:03:58.860Z,994.90
2019-05-07T01:04:58.949Z,994.89
2019-05-07T01:05:59.037Z,994.91
2019-05-07T01:06:59.132Z,994.90
2019-05-07T01:07:59.225Z,994.90
2019-05-07T01:08:59.313Z,994.88
2019-05-07T01:09:59.405Z,994.87
2019-05-07T01:10:59.492Z,994.88
2019-05-07T01:11:59.579Z,994.88
2019-05-07T01:12:59.672Z,994.87
2019-05-07T01:13:59.761Z,994.87
2019-05-07T01:14:59.858Z,994.86
2019-05-07T01:15:59.938Z,994.85
2019-05-07T01:17:02.211Z,994.86
2019-05-07T01:18:00.109Z,994.87
2019-05-07T01:19:02.037Z,994.84
2019-05-07T01:20:02.740Z,994.84
2019-05-07T01:21:02.270Z,994.82
2019-05-07T01:22:00.466Z,994.87
2019-05-07T01:23:02.581Z,994.85
2019-05-07T01:24:02.985Z,994.87
2019-05-07T01:25:02.295Z,994.83
2019-05-07T01:26:02.982Z,994.83
2019-05-07T01:27:02.159Z,994.84
2019-05-07T01:28:02.627Z,994.82
2019-05-07T01:29:03.055Z,994.80
2019-05-07T01:30:02.507Z,994.81
2019-05-07T01:31:02.165Z,994.80
2019-05-07T01:32:03.110Z,994.82
2019-05-07T01:33:02.774Z,994.80
2019-05-07T01:34:02.547Z,994.82
2019-05-07T01:35:02.499Z,994.85
2019-05-07T01:36:02.436Z,994.82
2019-05-07T01:37:02.659Z,994.85
2019-05-07T01:38:03.157Z,994.81
2019-05-07T01:39:02.635Z,994.78
2019-05-07T01:40:03.072Z,994.85
2019-05-07T01:41:02.832Z,994.80
2019-05-07T01:42:02.375Z,994.81
2019-05-07T01:43:02.609Z,994.82
2019-05-07T01:44:02.455Z,994.79
2019-05-07T01:45:02.563Z,994.81
2019-05-07T01:46:03.275Z,994.83
2019-05-07T01:47:02.790Z,994.80
2019-05-07T01:48:04.428Z,994.79
2019-05-07T01:49:03.125Z,994.77
2019-05-07T01:50:03.208Z,994.82
2019-05-07T01:51:03.536Z,994.84
2019-05-07T01:52:03.179Z,994.85
2019-05-07T01:53:03.880Z,994.81
2019-05-07T01:54:03.355Z,994.81
2019-05-07T01:55:03.512Z,994.84
2019-05-07T01:56:03.545Z,994.85
2019-05-07T01:57:03.633Z,994.87
2019-05-07T01:58:04.818Z,994.81
2019-05-07T01:59:03.809Z,994.88
2019-05-07T02:00:03.902Z,994.86
2019-05-07T02:01:03.991Z,994.88
2019-05-07T02:02:04.086Z,994.85
2019-05-07T02:03:04.171Z,994.83
2019-05-07T02:04:04.261Z,994.83
2019-05-07T02:05:04.351Z,994.85
2019-05-07T02:06:04.442Z,994.88
2019-05-07T02:07:04.531Z,994.91
2019-05-07T02:08:04.618Z,994.94
2019-05-07T02:09:04.705Z,994.93
2019-05-07T02:10:04.800Z,994.90
2019-05-07T02:11:04.887Z,994.93
2019-05-07T02:12:04.984Z,994.95
2019-05-07T02:13:05.089Z,994.95
2019-05-07T02:14:05.178Z,994.93
2019-05-07T02:15:05.267Z,994.92
2019-05-07T02:16:05.359Z,994.93
2019-05-07T02:17:05.451Z,994.90
2019-05-07T02:18:05.548Z,994.93
2019-05-07T02:19:05.633Z,994.91
2019-05-07T02:20:05.719Z,994.92
2019-05-07T02:21:05.806Z,994.86
2019-05-07T02:22:05.897Z,994.84
2019-05-07T02:23:05.986Z,994.89
2019-05-07T02:24:06.073Z,994.87
2019-05-07T02:25:06.163Z,994.87
2019-05-07T02:26:06.257Z,994.88
2019-05-07T02:27:06.346Z,994.89
2019-05-07T02:28:06.441Z,994.88
2019-05-07T02:29:06.522Z,994.87
2019-05-07T02:30:06.621Z,994.81
2019-05-07T02:31:06.703Z,994.83
2019-05-07T02:32:06.798Z,994.83
2019-05-07T02:33:06.882Z,994.83
2019-05-07T02:34:06.975Z,994.85
2019-05-07T02:35:07.065Z,994.86
2019-05-07T02:36:07.156Z,994.85
2019-05-07T02:37:07.241Z,994.83
2019-05-07T02:38:07.338Z,994.83
2019-05-07T02:39:07.426Z,994.82
2019-05-07T02:40:07.517Z,994.81
2019-05-07T02:41:07.610Z,994.77
2019-05-07T02:42:07.701Z,994.77
2019-05-07T02:43:07.790Z,994.83
2019-05-07T02:44:07.888Z,994.83
2019-05-07T02:45:07.965Z,994.81
2019-05-07T02:46:25.725Z,994.79
2019-05-07T02:47:08.146Z,994.79
2019-05-07T02:48:08.237Z,994.76
2019-05-07T02:49:08.320Z,994.77
2019-05-07T02:50:08.409Z,994.77
2019-05-07T02:51:08.497Z,994.77
2019-05-07T02:52:08.590Z,994.78
2019-05-07T02:53:08.685Z,994.78
2019-05-07T02:54:08.769Z,994.79
2019-05-07T02:55:08.859Z,994.81
2019-05-07T02:56:08.948Z,994.74
2019-05-07T02:57:09.040Z,994.77
2019-05-07T02:58:09.127Z,994.73
2019-05-07T02:59:09.217Z,994.77
2019-05-07T03:00:09.305Z,994.74
2019-05-07T03:01:09.396Z,994.75
2019-05-07T03:02:09.483Z,994.74
2019-05-07T03:03:09.585Z,994.75
2019-05-07T03:04:12.672Z,994.73
2019-05-07T03:05:09.763Z,994.80
2019-05-07T03:06:09.856Z,994.71
2019-05-07T03:07:12.922Z,994.76
2019-05-07T03:08:12.935Z,994.79
2019-05-07T03:09:10.123Z,994.77
2019-05-07T03:10:10.213Z,994.74
2019-05-07T03:11:13.720Z,994.80
2019-05-07T03:12:13.058Z,994.78
2019-05-07T03:13:13.436Z,994.79
2019-05-07T03:14:13.557Z,994.80
2019-05-07T03:15:13.237Z,994.77
2019-05-07T03:16:13.057Z,994.75
2019-05-07T03:17:13.306Z,994.78
2019-05-07T03:18:13.655Z,994.75
2019-05-07T03:19:13.452Z,994.78
2019-05-07T03:20:13.908Z,994.72
2019-05-07T03:21:12.754Z,994.78
2019-05-07T03:22:13.936Z,994.78
2019-05-07T03:23:13.376Z,994.75
2019-05-07T03:24:13.860Z,994.77
2019-05-07T03:25:13.521Z,994.75
2019-05-07T03:26:13.699Z,994.77
2019-05-07T03:27:14.081Z,994.73
2019-05-07T03:28:13.589Z,994.74
2019-05-07T03:29:13.080Z,994.74
2019-05-07T03:30:16.789Z,994.73
2019-05-07T03:31:16.752Z,994.74
2019-05-07T03:32:16.099Z,994.71
2019-05-07T03:33:16.083Z,994.74
2019-05-07T03:34:16.345Z,994.75
2019-05-07T03:35:16.237Z,994.74
2019-05-07T03:36:16.652Z,994.75
2019-05-07T03:37:13.630Z,994.69
2019-05-07T03:38:13.278Z,994.75
2019-05-07T03:39:14.548Z,994.76
2019-05-07T03:40:14.302Z,994.82
2019-05-07T03:41:13.044Z,994.80
2019-05-07T03:42:13.639Z,994.81
2019-05-07T03:43:14.090Z,994.87
2019-05-07T03:44:13.383Z,994.81
2019-05-07T03:45:13.844Z,994.85
2019-05-07T03:46:14.091Z,994.89
2019-05-07T03:47:14.077Z,994.82
2019-05-07T03:48:13.841Z,994.84
2019-05-07T03:49:13.747Z,994.85
2019-05-07T03:50:14.828Z,994.85
2019-05-07T03:51:13.920Z,994.88
2019-05-07T03:52:14.014Z,994.86
2019-05-07T03:53:14.484Z,994.86
2019-05-07T03:54:14.552Z,994.85
2019-05-07T03:55:14.771Z,994.88
2019-05-07T03:56:14.372Z,994.88
2019-05-07T03:57:15.885Z,994.87
2019-05-07T03:58:14.864Z,994.89
2019-05-07T03:59:14.641Z,994.89
2019-05-07T04:00:14.720Z,994.89
2019-05-07T04:01:14.805Z,994.87
2019-05-07T04:02:14.898Z,994.92
2019-05-07T04:03:19.000Z,994.91
2019-05-07T04:04:15.074Z,994.89
2019-05-07T04:05:15.165Z,994.90
2019-05-07T04:06:15.257Z,994.86
2019-05-07T04:07:15.346Z,994.88
2019-05-07T04:08:15.439Z,994.88
2019-05-07T04:09:15.525Z,994.92
2019-05-07T04:10:15.659Z,994.91
2019-05-07T04:11:15.725Z,994.93
2019-05-07T04:12:15.809Z,994.94
2019-05-07T04:13:15.909Z,994.95
2019-05-07T04:14:15.991Z,994.94
2019-05-07T04:15:19.389Z,994.96
2019-05-07T04:16:16.172Z,994.96
2019-05-07T04:17:22.430Z,994.93
2019-05-07T04:18:16.363Z,994.89
2019-05-07T04:19:16.440Z,994.93
2019-05-07T04:20:16.532Z,994.96
2019-05-07T04:21:16.621Z,994.95
2019-05-07T04:22:16.712Z,994.96
2019-05-07T04:23:16.803Z,995.02
2019-05-07T04:24:16.909Z,995.03
2019-05-07T04:25:16.985Z,995.01
2019-05-07T04:26:17.079Z,995.01
2019-05-07T04:27:17.167Z,995.04
2019-05-07T04:28:17.259Z,995.00
2019-05-07T04:29:17.349Z,994.99
2019-05-07T04:30:17.438Z,995.02
2019-05-07T04:31:17.532Z,994.98
2019-05-07T04:32:17.617Z,994.93
2019-05-07T04:33:17.707Z,994.97
2019-05-07T04:34:17.794Z,994.96
2019-05-07T04:35:17.890Z,994.95
2019-05-07T04:36:17.982Z,994.95
2019-05-07T04:37:18.078Z,994.97
2019-05-07T04:38:18.163Z,994.96
2019-05-07T04:39:18.251Z,995.00
2019-05-07T04:40:18.343Z,995.00
2019-05-07T04:41:18.435Z,994.97
2019-05-07T04:42:18.525Z,994.99
2019-05-07T04:43:18.616Z,995.00
2019-05-07T04:44:18.703Z,995.01
2019-05-07T04:45:18.797Z,994.96
2019-05-07T04:46:18.885Z,994.98
2019-05-07T04:47:36.987Z,995.01
2019-05-07T04:48:19.066Z,994.97
2019-05-07T04:49:19.160Z,995.02
2019-05-07T04:50:34.654Z,995.02
2019-05-07T04:51:19.338Z,995.03
2019-05-07T04:52:19.442Z,995.02
2019-05-07T04:53:19.519Z,995.02
2019-05-07T04:54:19.611Z,995.00
2019-05-07T04:55:22.751Z,995.05
2019-05-07T04:56:19.807Z,995.01
2019-05-07T04:57:19.880Z,995.07
2019-05-07T04:58:23.316Z,995.10
2019-05-07T04:59:20.061Z,995.12
2019-05-07T05:00:22.713Z,995.14
2019-05-07T05:01:23.202Z,995.10
2019-05-07T05:02:22.857Z,995.11
2019-05-07T05:03:23.461Z,995.15
2019-05-07T05:04:29.878Z,995.14
2019-05-07T05:05:23.263Z,995.17
2019-05-07T05:06:20.691Z,995.20
2019-05-07T05:07:22.455Z,995.20
2019-05-07T05:08:23.348Z,995.22
2019-05-07T05:09:23.157Z,995.24
2019-05-07T05:10:23.088Z,995.24
2019-05-07T05:11:23.653Z,995.26
2019-05-07T05:12:23.048Z,995.27
2019-05-07T05:13:23.492Z,995.23
2019-05-07T05:14:22.722Z,995.23
2019-05-07T05:15:22.175Z,995.23
2019-05-07T05:16:22.461Z,995.20
2019-05-07T05:17:22.425Z,995.20
2019-05-07T05:18:22.043Z,995.18
2019-05-07T05:19:23.013Z,995.21
2019-05-07T05:20:22.227Z,995.21
2019-05-07T05:21:22.754Z,995.22
2019-05-07T05:22:22.277Z,995.24
2019-05-07T05:23:22.808Z,995.21
2019-05-07T05:24:22.355Z,995.18
2019-05-07T05:25:22.787Z,995.22
2019-05-07T05:26:22.536Z,995.24
2019-05-07T05:27:22.662Z,995.22
2019-05-07T05:28:22.712Z,995.23
2019-05-07T05:29:22.874Z,995.26
2019-05-07T05:30:22.894Z,995.23
2019-05-07T05:31:22.986Z,995.26
2019-05-07T05:32:23.084Z,995.29
2019-05-07T05:33:23.586Z,995.27
2019-05-07T05:34:23.265Z,995.26
2019-05-07T05:35:23.358Z,995.31
2019-05-07T05:36:23.456Z,995.29
2019-05-07T05:37:23.543Z,995.28
2019-05-07T05:38:23.634Z,995.27
2019-05-07T05:39:23.725Z,995.30
2019-05-07T05:40:23.818Z,995.29
2019-05-07T05:41:23.902Z,995.30
2019-05-07T05:42:23.991Z,995.32
2019-05-07T05:43:24.081Z,995.30
2019-05-07T05:44:24.175Z,995.29
2019-05-07T05:45:24.294Z,995.32
2019-05-07T05:46:24.359Z,995.29
2019-05-07T05:47:24.451Z,995.30
2019-05-07T05:48:24.540Z,995.32
2019-05-07T05:49:24.632Z,995.33
2019-05-07T05:50:24.724Z,995.30
2019-05-07T05:51:24.815Z,995.34
2019-05-07T05:52:24.906Z,995.33
2019-05-07T05:53:25.000Z,995.31
2019-05-07T05:54:25.089Z,995.34
2019-05-07T05:55:25.181Z,995.33
2019-05-07T05:56:25.272Z,995.29
2019-05-07T05:57:25.363Z,995.32
2019-05-07T05:58:25.458Z,995.31
2019-05-07T05:59:37.024Z,995.32
2019-05-07T06:00:25.635Z,995.33
2019-05-07T06:01:25.720Z,995.37
2019-05-07T06:02:25.808Z,995.34
2019-05-07T06:03:25.900Z,995.36
2019-05-07T06:04:25.991Z,995.31
2019-05-07T06:05:26.083Z,995.33
2019-05-07T06:06:26.172Z,995.35
2019-05-07T06:07:26.264Z,995.31
2019-05-07T06:08:26.353Z,995.34
2019-05-07T06:09:26.449Z,995.39
2019-05-07T06:10:26.541Z,995.36
2019-05-07T06:11:26.627Z,995.39
2019-05-07T06:12:26.730Z,995.34
2019-05-07T06:13:26.823Z,995.40
2019-05-07T06:14:26.915Z,995.36
2019-05-07T06:15:27.006Z,995.36
2019-05-07T06:16:27.098Z,995.42
2019-05-07T06:17:27.215Z,995.42
2019-05-07T06:18:27.284Z,995.40
2019-05-07T06:19:27.375Z,995.41
2019-05-07T06:20:27.469Z,995.44
2019-05-07T06:21:27.561Z,995.43
2019-05-07T06:22:27.658Z,995.41
2019-05-07T06:23:28.328Z,995.44
2019-05-07T06:24:27.798Z,995.47
2019-05-07T06:25:27.887Z,995.48
2019-05-07T06:26:27.975Z,995.49
2019-05-07T06:27:28.071Z,995.49
2019-05-07T06:28:28.160Z,995.45
2019-05-07T06:29:28.252Z,995.46
2019-05-07T06:30:28.342Z,995.52
2019-05-07T06:31:28.438Z,995.51
2019-05-07T06:32:28.531Z,995.53
2019-05-07T06:33:28.620Z,995.52
2019-05-07T06:34:28.709Z,995.54
2019-05-07T06:35:28.804Z,995.55
2019-05-07T06:36:28.898Z,995.50
2019-05-07T06:37:28.995Z,995.51
2019-05-07T06:38:29.086Z,995.47
2019-05-07T06:39:29.178Z,995.46
2019-05-07T06:40:29.554Z,995.46
2019-05-07T06:41:29.363Z,995.43
2019-05-07T06:42:29.454Z,995.46
2019-05-07T06:43:29.547Z,995.44
2019-05-07T06:44:31.893Z,995.51
2019-05-07T06:45:32.315Z,995.45
2019-05-07T06:46:29.824Z,995.48
2019-05-07T06:47:31.845Z,995.47
2019-05-07T06:48:40.980Z,995.48
2019-05-07T06:49:32.286Z,995.46
2019-05-07T06:50:32.544Z,995.46
2019-05-07T06:51:32.645Z,995.45
2019-05-07T06:52:31.964Z,995.47
2019-05-07T06:53:32.987Z,995.54
2019-05-07T06:54:32.093Z,995.46
2019-05-07T06:55:32.374Z,995.46
2019-05-07T06:56:32.566Z,995.49
2019-05-07T06:57:32.865Z,995.42
2019-05-07T06:58:32.700Z,995.43
2019-05-07T06:59:34.278Z,995.48
2019-05-07T07:00:31.956Z,995.49
2019-05-07T07:01:32.365Z,995.46
2019-05-07T07:02:32.816Z,995.50
2019-05-07T07:03:32.771Z,995.51
2019-05-07T07:04:33.135Z,995.48
2019-05-07T07:05:32.985Z,995.48
2019-05-07T07:06:32.247Z,995.50
2019-05-07T07:07:36.546Z,995.51
2019-05-07T07:08:32.565Z,995.47
2019-05-07T07:09:32.930Z,995.46
2019-05-07T07:10:32.311Z,995.52
2019-05-07T07:11:32.187Z,995.46
2019-05-07T07:12:33.153Z,995.50
2019-05-07T07:13:32.391Z,995.45
2019-05-07T07:14:33.110Z,995.44
2019-05-07T07:15:32.508Z,995.39
2019-05-07T07:16:32.718Z,995.41
2019-05-07T07:17:32.853Z,995.41
2019-05-07T07:18:32.790Z,995.43
2019-05-07T07:19:35.994Z,995.39
2019-05-07T07:20:32.976Z,995.45
2019-05-07T07:21:33.069Z,995.45
2019-05-07T07:22:33.168Z,995.39
2019-05-07T07:23:33.262Z,995.42
2019-05-07T07:24:33.357Z,995.35
2019-05-07T07:25:33.453Z,995.39
2019-05-07T07:26:33.545Z,995.37
2019-05-07T07:27:33.648Z,995.37
2019-05-07T07:28:33.736Z,995.33
2019-05-07T07:29:33.822Z,995.35
2019-05-07T07:30:33.916Z,995.34
2019-05-07T07:31:34.010Z,995.37
2019-05-07T07:32:34.108Z,995.33
2019-05-07T07:33:34.200Z,995.36
2019-05-07T07:34:34.288Z,995.35
2019-05-07T07:35:34.393Z,995.40
2019-05-07T07:36:34.487Z,995.35
2019-05-07T07:37:34.581Z,995.37
2019-05-07T07:38:34.676Z,995.37
2019-05-07T07:39:34.772Z,995.43
2019-05-07T07:40:34.859Z,995.34
2019-05-07T07:41:34.954Z,995.35
2019-05-07T07:42:35.038Z,995.40
2019-05-07T07:43:35.134Z,995.37
2019-05-07T07:44:35.226Z,995.39
2019-05-07T07:45:35.320Z,995.40
2019-05-07T07:46:35.411Z,995.39
2019-05-07T07:47:35.503Z,995.39
2019-05-07T07:48:35.615Z,995.41
2019-05-07T07:49:35.708Z,995.41
2019-05-07T07:50:35.802Z,995.37
2019-05-07T07:51:41.607Z,995.42
2019-05-07T07:52:35.987Z,995.36
2019-05-07T07:53:36.077Z,995.36
2019-05-07T07:54:36.161Z,995.31
2019-05-07T07:55:36.251Z,995.31
2019-05-07T07:56:49.037Z,995.32
2019-05-07T07:57:36.443Z,995.32
2019-05-07T07:58:36.534Z,995.31
2019-05-07T07:59:36.631Z,995.34
2019-05-07T08:00:36.723Z,995.33
2019-05-07T08:01:36.814Z,995.32
2019-05-07T08:02:36.905Z,995.32
2019-05-07T08:03:37.000Z,995.32
2019-05-07T08:04:37.094Z,995.31
2019-05-07T08:05:37.186Z,995.32
2019-05-07T08:06:37.280Z,995.30
2019-05-07T08:07:37.376Z,995.30
2019-05-07T08:08:37.468Z,995.30
2019-05-07T08:09:37.566Z,995.31
2019-05-07T08:10:37.655Z,995.32
2019-05-07T08:11:37.753Z,995.30
2019-05-07T08:12:37.841Z,995.30
2019-05-07T08:13:37.933Z,995.34
2019-05-07T08:14:38.029Z,995.34
2019-05-07T08:15:38.124Z,995.32
2019-05-07T08:16:38.212Z,995.34
2019-05-07T08:17:38.309Z,995.29
2019-05-07T08:18:38.429Z,995.30
2019-05-07T08:19:38.490Z,995.31
2019-05-07T08:20:38.593Z,995.30
2019-05-07T08:21:38.680Z,995.21
2019-05-07T08:22:38.774Z,995.25
2019-05-07T08:23:38.869Z,995.25
2019-05-07T08:24:38.964Z,995.25
2019-05-07T08:25:39.054Z,995.21
2019-05-07T08:26:39.148Z,995.19
2019-05-07T08:27:39.242Z,995.14
2019-05-07T08:28:39.334Z,995.12
2019-05-07T08:29:39.435Z,995.15
2019-05-07T08:30:39.519Z,995.12
2019-05-07T08:31:39.623Z,995.10
2019-05-07T08:32:39.879Z,995.09
2019-05-07T08:33:39.794Z,995.10
2019-05-07T08:34:39.891Z,995.14
2019-05-07T08:35:41.953Z,995.08
2019-05-07T08:36:42.021Z,995.10
2019-05-07T08:37:42.586Z,995.09
2019-05-07T08:38:40.263Z,995.07
2019-05-07T08:39:42.411Z,995.04
2019-05-07T08:40:41.858Z,995.11
2019-05-07T08:41:42.267Z,995.06
2019-05-07T08:42:41.910Z,995.03
2019-05-07T08:43:42.705Z,994.98
2019-05-07T08:44:42.856Z,995.01
2019-05-07T08:45:43.044Z,995.02
2019-05-07T08:46:42.184Z,995.05
2019-05-07T08:47:42.528Z,995.03
2019-05-07T08:48:42.482Z,995.01
2019-05-07T08:49:43.225Z,995.02
2019-05-07T08:50:41.927Z,995.04
2019-05-07T08:51:42.622Z,995.01
2019-05-07T08:52:41.946Z,994.99
2019-05-07T08:53:42.284Z,994.99
2019-05-07T08:54:42.805Z,994.97
2019-05-07T08:55:42.471Z,995.00
2019-05-07T08:56:42.564Z,994.98
2019-05-07T08:57:42.130Z,994.99
2019-05-07T08:58:42.158Z,995.02
2019-05-07T08:59:46.753Z,995.01
2019-05-07T09:00:42.340Z,994.98
2019-05-07T09:01:43.237Z,994.97
2019-05-07T09:02:42.522Z,994.99
2019-05-07T09:03:43.162Z,994.92
2019-05-07T09:04:42.719Z,994.91
2019-05-07T09:05:42.801Z,994.86
2019-05-07T09:06:43.166Z,994.87
2019-05-07T09:07:42.981Z,994.82
2019-05-07T09:08:43.650Z,994.88
2019-05-07T09:09:43.175Z,994.87
2019-05-07T09:10:43.258Z,994.89
2019-05-07T09:11:43.349Z,994.89
2019-05-07T09:12:43.448Z,994.85
2019-05-07T09:13:43.534Z,994.85
2019-05-07T09:14:43.629Z,994.89
2019-05-07T09:15:43.720Z,994.80
2019-05-07T09:16:43.813Z,994.84
2019-05-07T09:17:43.914Z,994.84
2019-05-07T09:18:44.003Z,994.84
2019-05-07T09:19:50.558Z,994.87
2019-05-07T09:20:44.191Z,994.80
2019-05-07T09:21:44.294Z,994.84
2019-05-07T09:22:44.376Z,994.79
2019-05-07T09:23:44.468Z,994.76
2019-05-07T09:24:44.566Z,994.80
2019-05-07T09:25:44.662Z,994.80
2019-05-07T09:26:44.750Z,994.77
2019-05-07T09:27:44.844Z,994.79
2019-05-07T09:28:44.937Z,994.76
2019-05-07T09:29:45.035Z,994.73
2019-05-07T09:30:45.123Z,994.69
2019-05-07T09:31:45.221Z,994.70
2019-05-07T09:32:45.315Z,994.71
2019-05-07T09:33:45.409Z,994.64
2019-05-07T09:34:45.504Z,994.62
2019-05-07T09:35:45.601Z,994.62
2019-05-07T09:36:45.690Z,994.67
2019-05-07T09:37:45.784Z,994.62
2019-05-07T09:38:56.830Z,994.59
2019-05-07T09:39:45.977Z,994.55
2019-05-07T09:40:46.071Z,994.51
2019-05-07T09:41:46.167Z,994.50
2019-05-07T09:42:46.261Z,994.49
2019-05-07T09:43:46.357Z,994.44
2019-05-07T09:44:46.448Z,994.46
2019-05-07T09:45:46.564Z,994.45
2019-05-07T09:46:46.821Z,994.47
2019-05-07T09:47:46.734Z,994.46
2019-05-07T09:48:46.830Z,994.45
2019-05-07T09:49:46.922Z,994.46
2019-05-07T09:50:47.017Z,994.43
2019-05-07T09:51:47.113Z,994.43
2019-05-07T09:52:47.208Z,994.42
2019-05-07T09:53:47.302Z,994.40
2019-05-07T09:54:47.401Z,994.38
2019-05-07T09:55:47.497Z,994.36
2019-05-07T09:56:47.589Z,994.32
2019-05-07T09:57:47.683Z,994.34
2019-05-07T09:58:47.775Z,994.33
2019-05-07T09:59:47.872Z,994.36
2019-05-07T10:00:47.967Z,994.34
2019-05-07T10:01:48.059Z,994.32
2019-05-07T10:02:48.156Z,994.31
2019-05-07T10:03:48.252Z,994.32
2019-05-07T10:04:48.344Z,994.31
2019-05-07T10:05:48.436Z,994.34
2019-05-07T10:06:48.532Z,994.31
2019-05-07T10:07:48.630Z,994.26
2019-05-07T10:08:48.723Z,994.23
2019-05-07T10:09:48.820Z,994.25
2019-05-07T10:10:50.657Z,994.19
2019-05-07T10:11:49.027Z,994.14
2019-05-07T10:12:49.095Z,994.15
2019-05-07T10:13:49.189Z,994.13
2019-05-07T10:14:49.287Z,994.07
2019-05-07T10:15:49.381Z,994.06
2019-05-07T10:16:49.474Z,994.10
2019-05-07T10:17:49.589Z,994.11
2019-05-07T10:18:51.920Z,994.11
2019-05-07T10:19:49.775Z,994.13
2019-05-07T10:20:52.070Z,994.17
2019-05-07T10:21:49.955Z,994.24
2019-05-07T10:22:51.882Z,994.27
2019-05-07T10:23:52.095Z,994.25
2019-05-07T10:24:52.102Z,994.31
2019-05-07T10:25:50.332Z,994.28
2019-05-07T10:26:50.429Z,994.28
2019-05-07T10:27:50.520Z,994.35
2019-05-07T10:28:52.786Z,994.30
2019-05-07T10:29:52.887Z,994.37
2019-05-07T10:30:52.099Z,994.34
2019-05-07T10:31:52.719Z,994.35
2019-05-07T10:32:52.698Z,994.28
2019-05-07T10:33:52.457Z,994.31
2019-05-07T10:34:52.538Z,994.28
2019-05-07T10:35:52.893Z,994.30
2019-05-07T10:36:52.305Z,994.33
2019-05-07T10:37:52.840Z,994.27
2019-05-07T10:38:52.046Z,994.23
2019-05-07T10:39:52.028Z,994.23
2019-05-07T10:40:51.759Z,994.20
2019-05-07T10:41:51.847Z,994.24
2019-05-07T10:42:52.126Z,994.21
2019-05-07T10:43:52.051Z,994.20
2019-05-07T10:44:52.447Z,994.16
2019-05-07T10:45:52.226Z,994.16
2019-05-07T10:46:52.641Z,994.20
2019-05-07T10:47:52.415Z,994.20
2019-05-07T10:48:52.505Z,994.20
2019-05-07T10:49:52.674Z,994.21
2019-05-07T10:50:52.683Z,994.27
2019-05-07T10:51:52.779Z,994.27
2019-05-07T10:52:53.001Z,994.28
2019-05-07T10:53:52.993Z,994.30
2019-05-07T10:54:59.598Z,994.28
2019-05-07T10:55:53.179Z,994.29
2019-05-07T10:56:53.274Z,994.28
2019-05-07T10:57:53.369Z,994.30
2019-05-07T10:58:53.465Z,994.30
2019-05-07T10:59:53.567Z,994.28
2019-05-07T11:00:53.653Z,994.27
2019-05-07T11:01:53.745Z,994.25
2019-05-07T11:02:53.848Z,994.26
2019-05-07T11:03:53.930Z,994.23
2019-05-07T11:04:54.030Z,994.25
2019-05-07T11:05:54.125Z,994.24
2019-05-07T11:06:54.218Z,994.24
2019-05-07T11:07:54.309Z,994.24
2019-05-07T11:08:54.406Z,994.21
2019-05-07T11:09:54.501Z,994.23
2019-05-07T11:10:54.597Z,994.23
2019-05-07T11:11:54.702Z,994.25
2019-05-07T11:12:54.802Z,994.21
2019-05-07T11:13:56.140Z,994.22
2019-05-07T11:14:54.995Z,994.19
2019-05-07T11:15:55.096Z,994.19
2019-05-07T11:16:55.208Z,994.21
2019-05-07T11:17:55.304Z,994.19
2019-05-07T11:18:55.397Z,994.19
2019-05-07T11:19:55.493Z,994.17
2019-05-07T11:20:55.600Z,994.12
2019-05-07T11:21:55.694Z,994.14
2019-05-07T11:22:55.801Z,994.14
2019-05-07T11:23:55.931Z,994.14
2019-05-07T11:24:56.027Z,994.15
2019-05-07T11:25:56.126Z,994.17
2019-05-07T11:26:56.212Z,994.13
2019-05-07T11:27:56.327Z,994.15
2019-05-07T11:28:56.425Z,994.13
2019-05-07T11:29:56.515Z,994.12
2019-05-07T11:30:56.606Z,994.16
2019-05-07T11:31:56.696Z,994.13
2019-05-07T11:32:56.795Z,994.15
2019-05-07T11:33:56.896Z,994.12
2019-05-07T11:34:56.990Z,994.12
2019-05-07T11:35:57.090Z,994.10
2019-05-07T11:36:57.186Z,994.09
2019-05-07T11:37:57.288Z,994.07
2019-05-07T11:38:57.388Z,994.07
2019-05-07T11:39:57.470Z,994.10
2019-05-07T11:40:57.565Z,994.06
2019-05-07T11:41:57.672Z,994.06
2019-05-07T11:42:57.776Z,994.07
2019-05-07T11:43:57.880Z,994.05
2019-05-07T11:44:57.990Z,994.05
2019-05-07T11:45:59.036Z,994.07
2019-05-07T11:46:58.183Z,994.04
2019-05-07T11:47:58.278Z,994.06
2019-05-07T11:48:58.378Z,994.04
2019-05-07T11:49:58.468Z,994.06
2019-05-07T11:51:03.381Z,994.05
2019-05-07T11:51:58.673Z,994.05
2019-05-07T11:52:58.770Z,994.05
2019-05-07T11:53:58.869Z,994.08
2019-05-07T11:54:58.979Z,994.06
2019-05-07T11:55:59.077Z,993.99
2019-05-07T11:56:59.173Z,993.99
2019-05-07T11:57:59.268Z,993.99
2019-05-07T11:58:59.389Z,993.98
2019-05-07T11:59:59.461Z,993.97
2019-05-07T12:00:59.554Z,993.99
2019-05-07T12:01:59.660Z,993.98
2019-05-07T12:02:59.760Z,993.96
2019-05-07T12:04:01.843Z,993.97
2019-05-07T12:05:01.828Z,993.95
2019-05-07T12:06:01.970Z,993.95
2019-05-07T12:07:02.443Z,993.93
2019-05-07T12:08:02.209Z,993.93
2019-05-07T12:09:00.346Z,993.89
2019-05-07T12:10:04.419Z,993.91
2019-05-07T12:11:02.371Z,993.92
2019-05-07T12:12:02.392Z,993.92
2019-05-07T12:13:02.329Z,993.90
2019-05-07T12:14:02.059Z,993.89
2019-05-07T12:15:02.437Z,993.88
2019-05-07T12:16:02.921Z,993.92
2019-05-07T12:17:02.731Z,993.91
2019-05-07T12:18:03.037Z,993.89
2019-05-07T12:19:02.186Z,993.89
2019-05-07T12:20:02.363Z,993.87
2019-05-07T12:21:03.869Z,993.88
2019-05-07T12:22:02.707Z,993.85
2019-05-07T12:23:02.878Z,993.81
2019-05-07T12:24:02.339Z,993.80
2019-05-07T12:25:02.603Z,993.79
2019-05-07T12:26:02.373Z,993.78
2019-05-07T12:27:02.625Z,993.78
2019-05-07T12:28:02.679Z,993.80
2019-05-07T12:29:02.298Z,993.75
2019-05-07T12:30:02.401Z,993.71